Time;durP1;ratioP1;P1;durP2;ratioP2;P2;SDS_P1;SDS_P2;PMS_P1;PMS_P2;Temp;Humidity;BMP_temperature;BMP_pressure;BME280_temperature;BME280_humidity;BME280_pressure;Samples;Min_cycle;Max_cycle;Signal;HPM_P1;HPM_P2
2022/10/31 00:01:22;;;;;;;13.30;8.60;;;;;;;8.98;87.80;100893.01;1779741;80;20936;-72
2022/10/31 00:03:49;;;;;;;13.87;8.10;;;;;;;8.98;88.14;100891.28;1779904;80;21037;-71
2022/10/31 00:06:20;;;;;;;12.00;8.60;;;;;;;9.00;88.24;100889.47;1779928;80;21462;-72
2022/10/31 00:08:56;;;;;;;12.87;8.50;;;;;;;9.00;88.36;100890.78;1779948;80;21052;-72
2022/10/31 00:11:24;;;;;;;10.77;8.13;;;;;;;8.99;88.44;100887.77;1779802;80;21128;-71
2022/10/31 00:13:52;;;;;;;17.33;8.43;;;;;;;8.99;88.26;100890.38;1779784;80;20908;-71
2022/10/31 00:16:24;;;;;;;12.57;7.63;;;;;;;8.97;88.00;100891.30;1780098;80;21012;-72
2022/10/31 00:18:57;;;;;;;12.17;7.37;;;;;;;8.95;88.13;100895.24;1779820;80;21534;-72
2022/10/31 00:21:26;;;;;;;13.40;8.20;;;;;;;8.93;88.08;100898.36;1779919;80;21524;-71
2022/10/31 00:23:53;;;;;;;14.97;8.17;;;;;;;8.91;88.01;100907.98;1780132;80;21215;-71
2022/10/31 00:26:20;;;;;;;11.37;8.13;;;;;;;8.85;87.79;100909.44;1780117;80;21020;-71
2022/10/31 00:28:48;;;;;;;11.50;7.70;;;;;;;8.81;87.80;100909.95;1779869;80;20996;-72
2022/10/31 00:31:17;;;;;;;10.43;7.27;;;;;;;8.80;87.97;100911.28;1779814;80;21024;-72
2022/10/31 00:33:45;;;;;;;12.57;7.93;;;;;;;8.77;87.96;100915.27;1780216;80;21028;-72
2022/10/31 00:36:19;;;;;;;12.50;8.07;;;;;;;8.75;87.93;100913.12;1779874;80;22118;-72
2022/10/31 00:38:47;;;;;;;12.00;8.03;;;;;;;8.74;88.01;100910.97;1780092;80;21514;-78
2022/10/31 00:41:18;;;;;;;17.83;8.57;;;;;;;8.73;88.01;100914.91;1780178;80;21020;-71
2022/10/31 00:43:45;;;;;;;;;;;;;;;8.70;88.08;100915.83;1782492;80;21020;-71
2022/10/31 00:46:13;;;;;;;11.67;9.00;;;;;;;8.70;88.28;100917.13;1779892;80;20540;-71
2022/10/31 00:48:42;;;;;;;13.80;8.40;;;;;;;8.66;88.21;100915.05;1780181;80;21107;-72
2022/10/31 00:51:10;;;;;;;15.70;9.87;;;;;;;8.63;88.13;100919.03;1777484;80;20994;-71
2022/10/31 00:53:37;;;;;;;16.17;9.27;;;;;;;8.62;88.34;100913.41;1777857;80;21447;-72
2022/10/31 00:56:06;;;;;;;12.87;8.90;;;;;;;8.61;88.31;100907.73;1777392;80;21028;-71
2022/10/31 00:58:33;;;;;;;14.13;9.47;;;;;;;8.61;88.41;100914.72;1777811;80;21004;-72
2022/10/31 01:01:00;;;;;;;17.03;9.97;;;;;;;8.59;88.42;100914.77;1777537;80;21113;-72
2022/10/31 01:03:32;;;;;;;17.37;9.87;;;;;;;8.59;88.47;100911.27;1777468;80;20993;-78
2022/10/31 01:06:12;;;;;;;15.83;10.03;;;;;;;8.58;88.42;100919.56;1777722;80;21012;-72
2022/10/31 01:08:40;;;;;;;17.35;10.28;;;;;;;8.54;88.30;100919.67;1777614;80;21509;-71
2022/10/31 01:11:13;;;;;;;17.87;9.70;;;;;;;8.51;88.38;100922.33;1777898;80;20996;-71
2022/10/31 01:13:42;;;;;;;15.43;10.67;;;;;;;8.50;88.48;100924.08;1777569;80;21126;-72
2022/10/31 01:16:14;;;;;;;16.97;11.17;;;;;;;8.47;88.48;100923.70;1777761;80;20989;-71
2022/10/31 01:18:41;;;;;;;14.47;9.37;;;;;;;8.46;88.64;100917.22;1777205;80;20988;-72
2022/10/31 01:21:13;;;;;;;15.10;10.03;;;;;;;8.43;88.46;100914.67;1777594;80;21020;-71
2022/10/31 01:23:41;;;;;;;16.57;10.30;;;;;;;8.42;88.70;100920.31;1777441;80;21027;-71
2022/10/31 01:26:13;;;;;;;15.17;10.53;;;;;;;8.44;88.92;100925.06;1777842;80;21840;-71
2022/10/31 01:28:50;;;;;;;14.57;9.53;;;;;;;8.42;88.77;100924.23;1777693;80;20902;-71
2022/10/31 01:31:20;;;;;;;12.97;9.07;;;;;;;8.40;88.56;100919.95;1777439;80;21000;-71
2022/10/31 01:33:47;;;;;;;15.60;9.80;;;;;;;8.42;89.25;100919.00;1777943;80;21054;-75
2022/10/31 01:36:20;;;;;;;18.23;11.00;;;;;;;8.43;88.90;100919.44;1777840;80;21017;-71
2022/10/31 01:38:51;;;;;;;18.80;10.97;;;;;;;8.45;89.24;100919.39;1777153;80;21601;-71
2022/10/31 01:41:24;;;;;;;21.97;11.65;;;;;;;8.43;88.99;100923.36;1777845;80;21012;-71
2022/10/31 01:44:14;;;;;;;16.60;10.97;;;;;;;8.42;89.16;100916.84;1777615;80;20969;-71
2022/10/31 01:46:46;;;;;;;17.45;11.48;;;;;;;8.40;88.91;100920.81;1777597;80;20989;-72
2022/10/31 01:49:27;;;;;;;16.23;11.20;;;;;;;8.39;89.05;100923.44;1777518;80;20996;-72
2022/10/31 01:52:02;;;;;;;17.80;11.25;;;;;;;8.38;89.37;100925.61;1780191;80;21952;-71
2022/10/31 01:54:34;;;;;;;17.60;9.93;;;;;;;8.35;89.11;100923.92;1779883;80;21016;-71
2022/10/31 01:57:05;;;;;;;13.50;9.70;;;;;;;8.33;88.99;100924.84;1780010;80;21497;-71
2022/10/31 01:59:36;;;;;;;11.97;9.00;;;;;;;8.29;88.92;100923.19;1779939;80;21001;-71
2022/10/31 02:02:03;;;;;;;13.07;8.13;;;;;;;8.29;89.20;100921.43;1779977;80;20996;-72
2022/10/31 02:04:30;;;;;;;11.70;7.53;;;;;;;8.31;89.33;100918.33;1780250;80;21485;-75
2022/10/31 02:07:15;;;;;;;13.23;9.20;;;;;;;8.27;89.21;100921.45;1779769;80;21056;-72
2022/10/31 02:09:45;;;;;;;17.57;10.40;;;;;;;8.27;89.44;100918.84;1780266;80;21016;-72
2022/10/31 02:12:13;;;;;;;14.37;9.90;;;;;;;8.25;89.22;100920.61;1780172;80;20977;-72
2022/10/31 02:14:41;;;;;;;13.83;9.80;;;;;;;8.27;89.64;100924.52;1780286;80;21675;-71
2022/10/31 02:17:09;;;;;;;10.43;8.00;;;;;;;8.27;89.65;100923.20;1779996;80;21804;-72
2022/10/31 02:20:07;;;;;;;12.87;8.27;;;;;;;8.26;90.10;100919.73;1780166;80;21013;-72
2022/10/31 02:23:02;;;;;;;11.57;8.10;;;;;;;8.29;89.86;100921.88;1778969;80;21048;-71
2022/10/31 02:26:03;;;;;;;10.30;8.00;;;;;;;8.28;89.87;100923.61;1780139;80;20989;-72
2022/10/31 02:28:57;;;;;;;12.00;8.20;;;;;;;8.24;89.40;100922.81;1779062;80;21516;-72
2022/10/31 02:31:41;;;;;;;14.03;7.43;;;;;;;8.19;89.36;100922.48;1780267;80;21113;-73
2022/10/31 02:34:47;;;;;;;9.77;6.97;;;;;;;8.17;89.49;100926.88;1780256;80;21501;-72
2022/10/31 02:37:20;;;;;;;12.60;7.53;;;;;;;8.18;89.93;100924.25;1779993;80;21012;-72
2022/10/31 02:39:55;;;;;;;9.50;6.43;;;;;;;8.18;89.73;100923.39;1740739;80;21000;-79
2022/10/31 02:42:48;;;;;;;12.43;7.47;;;;;;;8.16;89.61;100926.47;1779693;80;21041;-72
2022/10/31 02:45:35;;;;;;;9.40;6.67;;;;;;;8.10;89.29;100926.14;1780009;80;21140;-72
2022/10/31 02:48:14;;;;;;;8.13;6.17;;;;;;;8.05;89.14;100935.34;1780241;80;21020;-72
2022/10/31 02:50:48;;;;;;;7.55;5.20;;;;;;;8.01;89.16;100932.84;1780035;80;21016;-72
2022/10/31 02:53:16;;;;;;;7.23;5.47;;;;;;;7.98;89.23;100931.56;1779640;80;21028;-73
2022/10/31 02:55:49;;;;;;;9.27;5.50;;;;;;;7.95;89.31;100935.53;1780332;80;20977;-72
2022/10/31 02:58:22;;;;;;;8.13;5.60;;;;;;;7.92;89.32;100924.70;1780143;80;22078;-72
2022/10/31 03:01:29;;;;;;;8.60;5.73;;;;;;;7.90;89.24;100938.66;1780182;80;21012;-72
2022/10/31 03:04:11;;;;;;;7.40;5.80;;;;;;;7.91;89.77;100933.88;1753802;80;21063;-73
2022/10/31 03:06:55;;;;;;;10.63;6.67;;;;;;;7.91;89.82;100939.10;1779351;80;21020;-72
2022/10/31 03:09:45;;;;;;;10.10;6.00;;;;;;;7.87;89.73;100939.61;1779804;80;21043;-71
2022/10/31 03:12:33;;;;;;;10.07;6.67;;;;;;;7.85;89.73;100938.77;1780009;80;21133;-72
2022/10/31 03:15:17;;;;;;;9.03;6.60;;;;;;;7.85;89.70;100948.34;1780150;80;21451;-72
2022/10/31 03:17:53;;;;;;;7.90;6.17;;;;;;;7.82;89.90;100953.17;1780295;80;21522;-72
2022/10/31 03:20:25;;;;;;;11.40;6.87;;;;;;;7.81;90.02;100952.73;1764521;80;21443;-72
2022/10/31 03:22:54;;;;;;;9.50;6.27;;;;;;;7.81;90.26;100954.04;1780312;80;21541;-72
2022/10/31 03:25:23;;;;;;;8.77;6.43;;;;;;;7.81;90.21;100951.02;1780036;80;21533;-72
2022/10/31 03:27:53;;;;;;;9.47;6.33;;;;;;;7.77;89.84;100953.23;1780010;80;21565;-72
2022/10/31 03:30:20;;;;;;;9.75;6.67;;;;;;;7.75;89.83;100951.09;1779930;80;21012;-72
2022/10/31 03:32:53;;;;;;;13.83;8.23;;;;;;;7.77;90.09;100954.99;1778582;80;21600;-72
2022/10/31 03:35:26;;;;;;;11.67;7.20;;;;;;;7.76;90.29;100955.86;1779956;80;21063;-73
2022/10/31 03:37:55;;;;;;;11.53;7.57;;;;;;;7.75;89.93;100961.98;1780166;80;21775;-72
2022/10/31 03:40:26;;;;;;;11.13;7.57;;;;;;;7.73;89.93;100955.91;1779827;80;20993;-75
2022/10/31 03:43:08;;;;;;;14.47;8.40;;;;;;;7.72;89.88;100960.27;1753488;80;20962;-72
2022/10/31 03:45:40;;;;;;;11.33;7.53;;;;;;;7.75;90.41;100958.06;1779900;80;20985;-72
2022/10/31 03:48:08;;;;;;;12.00;8.50;;;;;;;7.73;89.98;100959.41;1779931;80;21024;-72
2022/10/31 03:51:08;;;;;;;18.07;10.17;;;;;;;7.70;90.11;100958.13;1779065;80;21121;-72
2022/10/31 03:53:43;;;;;;;12.88;8.65;;;;;;;7.75;91.08;100960.22;1777299;80;20977;-72
2022/10/31 03:56:32;;;;;;;17.13;8.70;;;;;;;7.77;90.67;100957.16;1777467;80;20997;-72
2022/10/31 03:59:13;;;;;;;15.23;9.30;;;;;;;7.77;90.70;100964.98;1775952;80;21013;-72
2022/10/31 04:01:46;;;;;;;18.33;10.77;;;;;;;7.74;90.33;100954.59;1777216;80;21020;-72
2022/10/31 04:04:14;;;;;;;13.07;8.77;;;;;;;7.69;89.92;100965.55;1776409;80;21133;-71
2022/10/31 04:06:45;;;;;;;13.90;9.07;;;;;;;7.64;89.99;100966.51;1777316;80;21026;-71
2022/10/31 04:09:16;;;;;;;10.17;7.90;;;;;;;7.62;90.02;100963.94;1777099;80;21412;-71
2022/10/31 04:11:51;;;;;;;13.00;7.17;;;;;;;7.60;90.11;100969.62;1777430;80;21482;-77
2022/10/31 04:14:39;;;;;;;9.50;7.10;;;;;;;7.56;89.98;100966.17;1773277;80;21464;-71
2022/10/31 04:17:13;;;;;;;12.63;7.80;;;;;;;7.51;89.85;100968.02;1777318;80;21159;-71
2022/10/31 04:19:41;;;;;;;10.83;7.63;;;;;;;7.49;89.75;100970.23;1777060;80;21533;-71
2022/10/31 04:22:08;;;;;;;13.77;8.50;;;;;;;7.45;89.72;100974.61;1777071;80;21028;-71
2022/10/31 04:24:36;;;;;;;17.43;8.53;;;;;;;7.44;90.12;100965.07;1777018;80;20989;-71
2022/10/31 04:27:03;;;;;;;10.93;8.73;;;;;;;7.49;90.85;100967.62;1777003;80;21466;-71
2022/10/31 04:29:31;;;;;;;13.77;9.20;;;;;;;7.54;91.13;100973.19;1777002;80;21115;-71
2022/10/31 04:31:58;;;;;;;14.93;9.50;;;;;;;7.56;91.41;100968.78;1777329;80;21063;-71
2022/10/31 04:34:26;;;;;;;14.57;9.33;;;;;;;7.65;91.71;100966.50;1777168;80;20996;-71
2022/10/31 04:36:54;;;;;;;12.77;8.10;;;;;;;7.75;92.77;100968.05;1777176;80;21020;-71
2022/10/31 04:39:22;;;;;;;15.80;8.70;;;;;;;7.76;91.56;100965.87;1777270;80;20994;-78
2022/10/31 04:41:51;;;;;;;12.87;8.57;;;;;;;7.76;91.34;100966.30;1774812;80;21135;-71
2022/10/31 04:44:19;;;;;;;10.23;7.37;;;;;;;7.74;90.99;100967.64;1777058;80;21669;-71
2022/10/31 04:46:49;;;;;;;13.05;8.50;;;;;;;7.72;90.68;100968.55;1777405;80;21529;-71
2022/10/31 04:49:17;;;;;;;10.83;7.47;;;;;;;7.69;90.52;100968.16;1777406;80;21072;-72
2022/10/31 04:51:44;;;;;;;14.97;8.10;;;;;;;7.67;90.44;100967.31;1778922;80;21066;-71
2022/10/31 04:54:13;;;;;;;12.97;8.10;;;;;;;7.67;90.58;100971.23;1753864;80;21124;-72
2022/10/31 04:56:58;;;;;;;15.80;8.23;;;;;;;7.66;90.43;100968.66;1779928;80;20985;-72
2022/10/31 04:59:26;;;;;;;13.10;8.47;;;;;;;7.65;90.63;100971.72;1753815;80;20977;-71
2022/10/31 05:01:54;;;;;;;15.60;8.43;;;;;;;7.63;90.61;100970.02;1779898;80;22040;-71
2022/10/31 05:04:23;;;;;;;15.57;8.60;;;;;;;7.61;90.41;100976.55;1779346;80;21019;-71
2022/10/31 05:06:51;;;;;;;12.20;8.27;;;;;;;7.60;90.59;100972.23;1780141;80;21104;-72
2022/10/31 05:09:19;;;;;;;13.27;8.20;;;;;;;7.60;90.64;100964.40;1779940;80;20992;-71
2022/10/31 05:11:46;;;;;;;13.90;9.40;;;;;;;7.63;90.77;100970.02;1780105;80;21016;-72
2022/10/31 05:14:19;;;;;;;12.57;8.47;;;;;;;7.62;90.74;100963.94;1777420;80;21052;-72
2022/10/31 05:17:04;;;;;;;14.23;10.17;;;;;;;7.61;90.66;100966.11;1779955;80;21017;-72
2022/10/31 05:19:38;;;;;;;13.30;9.13;;;;;;;7.63;91.02;100966.10;1776298;80;21816;-72
2022/10/31 05:22:12;;;;;;;14.23;8.63;;;;;;;7.62;90.82;100974.38;1775919;80;21020;-71
2022/10/31 05:24:40;;;;;;;14.63;9.53;;;;;;;7.62;90.74;100972.19;1779942;80;21083;-71
2022/10/31 05:27:10;;;;;;;14.78;8.83;;;;;;;7.62;90.88;100973.49;1780432;80;21041;-71
2022/10/31 05:29:37;;;;;;;15.33;9.43;;;;;;;7.58;90.52;100980.06;1780062;80;22017;-78
2022/10/31 05:32:04;;;;;;;14.40;9.60;;;;;;;7.54;90.47;100977.09;1780268;80;21089;-71
2022/10/31 05:34:42;;;;;;;16.83;9.30;;;;;;;7.53;90.88;100975.35;1718270;83;21016;-72
2022/10/31 05:37:14;;;;;;;17.63;10.07;;;;;;;7.55;91.04;100977.95;1776402;80;21013;-79
2022/10/31 05:39:42;;;;;;;19.23;9.53;;;;;;;7.60;91.89;100980.05;1780251;80;20991;-71
2022/10/31 05:42:11;;;;;;;12.97;9.10;;;;;;;7.63;91.76;100978.70;1779963;80;21031;-71
2022/10/31 05:44:39;;;;;;;13.00;9.67;;;;;;;7.64;91.76;100981.72;1780162;80;21106;-71
2022/10/31 05:47:17;;;;;;;16.73;10.57;;;;;;;7.67;91.64;100987.33;1742680;80;20963;-71
2022/10/31 05:49:55;;;;;;;15.23;10.10;;;;;;;7.67;91.62;100989.94;1775632;80;21482;-71
2022/10/31 05:52:42;;;;;;;20.57;14.70;;;;;;;7.65;91.42;100987.78;1779932;80;20882;-71
2022/10/31 05:55:20;;;;;;;19.83;13.57;;;;;;;7.67;91.63;100993.41;1779214;80;20989;-72
2022/10/31 05:57:49;;;;;;;13.40;9.43;;;;;;;7.65;91.52;100993.89;1776768;80;21473;-71
2022/10/31 06:00:18;;;;;;;15.40;9.73;;;;;;;7.63;91.21;100991.74;1779814;80;21493;-72
2022/10/31 06:02:49;;;;;;;15.53;10.40;;;;;;;7.62;91.24;100999.16;1779912;80;21016;-72
2022/10/31 06:05:24;;;;;;;10.67;8.60;;;;;;;7.63;91.32;101002.18;1779288;80;20981;-71
2022/10/31 06:07:53;;;;;;;13.10;7.53;;;;;;;7.61;91.08;101000.03;1779846;80;21008;-71
2022/10/31 06:10:21;;;;;;;13.07;8.63;;;;;;;7.62;91.39;101004.38;1779935;80;21125;-71
2022/10/31 06:12:50;;;;;;;13.60;8.03;;;;;;;7.64;91.53;101007.80;1779872;80;20980;-72
2022/10/31 06:15:22;;;;;;;14.63;8.97;;;;;;;7.68;91.75;101009.50;1779420;80;21016;-71
2022/10/31 06:18:05;;;;;;;11.43;8.57;;;;;;;7.70;91.75;101004.23;1753433;80;21490;-71
2022/10/31 06:20:37;;;;;;;14.20;8.70;;;;;;;7.71;91.83;101003.37;1779141;80;21020;-71
2022/10/31 06:23:06;;;;;;;13.20;8.70;;;;;;;7.77;92.49;101010.65;1779952;80;21097;-72
2022/10/31 06:25:33;;;;;;;34.53;29.73;;;;;;;7.81;92.53;101012.34;1780049;80;20989;-71
2022/10/31 06:28:01;;;;;;;15.80;10.73;;;;;;;7.87;92.75;101008.77;1779912;80;21068;-71
2022/10/31 06:30:32;;;;;;;14.57;8.63;;;;;;;7.90;92.43;101016.97;1777552;80;21013;-71
2022/10/31 06:33:06;;;;;;;14.40;10.07;;;;;;;7.90;92.27;101019.58;1780127;80;21072;-71
2022/10/31 06:35:34;;;;;;;12.63;7.87;;;;;;;7.94;92.51;101019.96;1780247;80;21106;-71
2022/10/31 06:38:02;;;;;;;11.90;8.67;;;;;;;7.97;92.33;101017.30;1780177;80;20988;-72
2022/10/31 06:40:30;;;;;;;14.10;8.57;;;;;;;8.01;92.66;101018.54;1778648;80;21008;-71
2022/10/31 06:43:05;;;;;;;14.17;9.07;;;;;;;8.06;92.75;101022.36;1777838;80;21029;-71
2022/10/31 06:45:33;;;;;;;12.20;8.23;;;;;;;8.11;92.78;101025.75;1779972;80;21460;-72
2022/10/31 06:48:06;;;;;;;11.70;8.53;;;;;;;8.17;92.99;101029.56;1763993;80;21068;-72
2022/10/31 06:50:35;;;;;;;17.40;10.85;;;;;;;8.22;92.97;101029.05;1780243;80;21024;-71
2022/10/31 06:53:02;;;;;;;15.73;11.33;;;;;;;8.29;93.27;101027.66;1782757;80;21348;-79
2022/10/31 06:55:29;;;;;;;14.80;10.83;;;;;;;8.34;93.35;101032.33;1782878;80;21015;-72
2022/10/31 06:57:59;;;;;;;14.37;9.77;;;;;;;8.43;93.71;101037.45;1782893;80;21172;-71
2022/10/31 07:00:29;;;;;;;13.20;10.28;;;;;;;8.51;93.79;101034.25;1782985;80;21116;-71
2022/10/31 07:03:01;;;;;;;12.80;8.83;;;;;;;8.59;93.94;101038.00;1781927;80;21083;-71
2022/10/31 07:05:30;;;;;;;13.07;9.20;;;;;;;8.66;93.94;101042.23;1782928;80;21012;-71
2022/10/31 07:08:01;;;;;;;16.70;9.60;;;;;;;8.72;94.01;101038.19;1782794;80;21540;-71
2022/10/31 07:10:31;;;;;;;18.67;10.23;;;;;;;8.80;94.23;101049.36;1783028;80;21860;-77
2022/10/31 07:13:04;;;;;;;15.17;10.10;;;;;;;8.88;94.41;101048.77;1782712;80;21506;-71
2022/10/31 07:15:37;;;;;;;13.63;9.87;;;;;;;8.97;94.58;101045.56;1782790;80;20973;-72
2022/10/31 07:18:08;;;;;;;12.90;9.73;;;;;;;9.05;94.72;101054.11;1783076;80;21971;-72
2022/10/31 07:20:35;;;;;;;15.27;9.73;;;;;;;9.12;94.75;101053.97;1783152;80;21000;-73
2022/10/31 07:23:03;;;;;;;14.03;10.30;;;;;;;9.20;94.86;101058.16;1783094;80;21026;-72
2022/10/31 07:25:31;;;;;;;27.80;19.33;;;;;;;9.26;94.96;101060.67;1782775;80;21126;-72
2022/10/31 07:28:07;;;;;;;26.57;18.67;;;;;;;9.33;95.08;101047.86;1781565;80;21032;-72
2022/10/31 07:30:34;;;;;;;27.17;19.97;;;;;;;9.43;95.19;101053.77;1782878;80;21013;-72
2022/10/31 07:33:02;;;;;;;31.07;21.30;;;;;;;9.52;95.29;101054.86;1782836;80;21469;-72
2022/10/31 07:35:37;;;;;;;20.60;14.73;;;;;;;9.60;95.32;101059.02;1779179;80;21008;-72
2022/10/31 07:38:11;;;;;;;19.63;15.40;;;;;;;9.69;95.34;101062.33;1783281;80;21248;-72
2022/10/31 07:40:38;;;;;;;16.40;12.37;;;;;;;9.78;95.44;101069.55;1782874;80;21490;-72
2022/10/31 07:43:08;;;;;;;17.07;11.20;;;;;;;9.87;95.51;101064.98;1783103;80;21000;-72
2022/10/31 07:45:47;;;;;;;15.67;10.70;;;;;;;9.96;95.78;101068.69;1779259;80;21518;-72
2022/10/31 07:48:33;;;;;;;15.37;10.63;;;;;;;10.05;95.81;101065.39;1783286;80;21012;-72
2022/10/31 07:51:18;;;;;;;12.90;9.87;;;;;;;10.14;95.91;101065.64;1782519;80;21513;-72
2022/10/31 07:54:04;;;;;;;15.10;9.47;;;;;;;10.23;95.88;101073.72;1779846;80;21439;-72
2022/10/31 07:56:32;;;;;;;12.63;9.00;;;;;;;10.31;95.92;101069.18;1779725;80;21000;-79
2022/10/31 07:59:00;;;;;;;17.83;10.00;;;;;;;10.39;95.97;101068.53;1753587;80;21466;-72
2022/10/31 08:01:27;;;;;;;14.33;10.57;;;;;;;10.47;95.97;101072.25;1780162;80;21024;-72
2022/10/31 08:03:56;;;;;;;16.80;10.27;;;;;;;10.56;96.15;101079.00;1775240;80;21127;-72
2022/10/31 08:06:25;;;;;;;19.40;10.03;;;;;;;10.67;96.40;101082.23;1763871;80;20921;-72
2022/10/31 08:09:06;;;;;;;17.17;10.68;;;;;;;10.78;96.70;101081.50;1778834;80;21450;-72
2022/10/31 08:11:34;;;;;;;18.03;10.63;;;;;;;10.90;96.75;101081.15;1779880;80;21022;-72
2022/10/31 08:14:02;;;;;;;15.88;11.50;;;;;;;11.03;96.91;101082.99;1779872;80;20977;-72
2022/10/31 08:16:29;;;;;;;18.20;10.58;;;;;;;11.15;96.87;101083.09;1753783;80;21121;-72
2022/10/31 08:18:58;;;;;;;17.52;11.65;;;;;;;11.27;96.96;101081.88;1779381;80;21068;-72
2022/10/31 08:21:25;;;;;;;20.43;11.83;;;;;;;11.41;97.07;101082.78;1779817;80;20977;-72
2022/10/31 08:23:52;;;;;;;15.97;11.30;;;;;;;11.57;97.08;101075.70;1779948;80;21010;-72
2022/10/31 08:26:21;;;;;;;17.37;11.00;;;;;;;11.74;97.39;101077.81;1779908;80;21023;-72
2022/10/31 08:28:51;;;;;;;17.35;10.10;;;;;;;11.96;97.59;101083.75;1779840;80;21963;-72
2022/10/31 08:31:20;;;;;;;17.90;10.43;;;;;;;12.16;97.68;101077.38;1780001;80;21004;-72
2022/10/31 08:33:48;;;;;;;18.15;11.08;;;;;;;12.37;97.66;101079.77;1779847;80;20980;-73
2022/10/31 08:36:19;;;;;;;31.07;19.02;;;;;;;12.56;97.31;101083.09;1780169;80;21992;-72
2022/10/31 08:38:51;;;;;;;22.10;14.13;;;;;;;12.71;97.13;101080.77;1751042;80;21033;-72
2022/10/31 08:41:19;;;;;;;20.25;12.85;;;;;;;12.92;97.14;101077.85;1779835;80;21139;-73
2022/10/31 08:43:48;;;;;;;19.62;13.95;;;;;;;13.14;97.22;101081.88;1779640;80;21492;-72
2022/10/31 08:46:17;;;;;;;17.77;10.75;;;;;;;13.37;97.34;101081.05;1780112;80;20977;-72
2022/10/31 08:48:44;;;;;;;16.40;9.70;;;;;;;13.62;97.03;101082.75;1779751;80;21000;-72
2022/10/31 08:51:13;;;;;;;16.40;9.38;;;;;;;13.82;96.67;101078.00;1779856;80;21492;-72
2022/10/31 08:53:41;;;;;;;19.35;9.68;;;;;;;14.01;96.30;101073.71;1777032;80;21104;-73
2022/10/31 08:56:26;;;;;;;14.75;8.63;;;;;;;14.22;95.62;101077.27;1777481;80;21426;-72
2022/10/31 08:58:54;;;;;;;16.32;7.22;;;;;;;14.42;95.34;101071.14;1777275;80;20992;-73
2022/10/31 09:01:23;;;;;;;15.85;6.97;;;;;;;14.62;94.86;101078.23;1775874;80;21001;-72
2022/10/31 09:03:50;;;;;;;12.98;6.42;;;;;;;14.90;94.59;101073.08;1777184;80;21489;-72
2022/10/31 09:06:18;;;;;;;15.15;7.05;;;;;;;15.21;94.09;101075.66;1777314;80;21141;-72
2022/10/31 09:08:47;;;;;;;11.60;6.00;;;;;;;15.48;93.28;101079.67;1776979;80;21549;-73
2022/10/31 09:11:14;;;;;;;11.70;5.90;;;;;;;15.72;92.47;101069.77;1777228;80;21013;-77
2022/10/31 09:13:51;;;;;;;15.28;6.60;;;;;;;15.97;91.90;101073.41;1719741;80;20992;-72
2022/10/31 09:16:35;;;;;;;15.40;5.97;;;;;;;16.26;91.26;101076.39;1713325;83;21533;-72
2022/10/31 09:19:03;;;;;;;10.55;6.00;;;;;;;16.50;90.41;101078.27;1755961;80;21131;-72
2022/10/31 09:21:30;;;;;;;11.60;6.50;;;;;;;16.69;89.50;101076.88;1777426;80;21024;-72
2022/10/31 09:23:58;;;;;;;11.65;5.97;;;;;;;16.92;88.97;101078.34;1777110;80;21059;-74
2022/10/31 09:26:26;;;;;;;12.85;6.05;;;;;;;17.12;88.26;101077.27;1777490;80;21059;-73
2022/10/31 09:28:58;;;;;;;12.55;6.33;;;;;;;17.32;87.49;101079.72;1777285;80;20985;-73
2022/10/31 09:31:26;;;;;;;12.25;5.37;;;;;;;17.53;87.10;101082.97;1777558;80;21100;-79
2022/10/31 09:33:57;;;;;;;12.73;5.60;;;;;;;17.73;86.27;101077.87;1776371;80;20996;-72
2022/10/31 09:36:39;;;;;;;9.55;5.65;;;;;;;17.91;85.63;101072.06;1777634;80;21009;-73
2022/10/31 09:39:14;;;;;;;12.18;6.10;;;;;;;18.20;85.41;101073.49;1777115;80;21478;-72
2022/10/31 09:41:59;;;;;;;13.35;6.72;;;;;;;18.41;84.64;101072.72;1777501;80;21032;-72
2022/10/31 09:44:36;;;;;;;12.95;6.28;;;;;;;18.53;83.71;101075.11;1744161;80;21145;-72
2022/10/31 09:47:24;;;;;;;10.65;6.62;;;;;;;18.73;83.27;101074.76;1771630;80;21025;-72
2022/10/31 09:50:01;;;;;;;14.65;7.50;;;;;;;18.95;82.81;101078.33;1773552;80;21486;-73
2022/10/31 09:52:32;;;;;;;16.37;6.90;;;;;;;19.19;82.00;101085.75;1777454;80;21542;-72
2022/10/31 09:55:06;;;;;;;10.65;6.72;;;;;;;19.35;81.38;101082.52;1777193;80;21536;-73
2022/10/31 09:57:36;;;;;;;14.63;6.65;;;;;;;19.51;80.68;101090.35;1777457;80;21141;-72
2022/10/31 10:00:06;;;;;;;12.33;6.55;;;;;;;19.68;80.42;101087.52;1777085;80;20966;-80
2022/10/31 10:02:44;;;;;;;12.90;6.97;;;;;;;19.91;79.78;101090.02;1776350;80;20989;-72
2022/10/31 10:05:15;;;;;;;14.93;6.33;;;;;;;20.13;79.48;101083.30;1777210;80;21008;-72
2022/10/31 10:08:05;;;;;;;11.43;6.00;;;;;;;20.40;79.08;101079.27;1777479;80;21056;-73
2022/10/31 10:10:45;;;;;;;14.13;6.42;;;;;;;20.63;78.18;101085.72;1734581;80;21134;-72
2022/10/31 10:13:26;;;;;;;11.12;7.03;;;;;;;20.84;77.77;101082.92;1748351;80;20977;-72
2022/10/31 10:16:07;;;;;;;13.88;7.47;;;;;;;21.06;77.07;101086.73;1777085;80;20984;-72
2022/10/31 10:19:07;;;;;;;12.47;6.95;;;;;;;21.26;76.64;101086.20;1776692;80;21491;-75
2022/10/31 10:21:56;;;;;;;15.25;7.62;;;;;;;21.42;75.83;101087.30;1777298;80;21032;-77
2022/10/31 10:24:56;;;;;;;17.00;7.53;;;;;;;21.56;75.11;101080.52;1774697;80;21089;-72
2022/10/31 10:27:37;;;;;;;11.30;6.85;;;;;;;21.60;74.20;101080.64;1776922;80;21045;-72
2022/10/31 10:30:21;;;;;;;16.10;7.30;;;;;;;21.71;73.73;101087.03;1777115;80;21497;-73
2022/10/31 10:32:54;;;;;;;14.55;7.25;;;;;;;21.90;73.43;101081.20;1777326;80;21533;-72
2022/10/31 10:35:59;;;;;;;12.33;7.22;;;;;;;22.07;72.86;101082.61;1776994;80;20999;-73
2022/10/31 10:38:52;;;;;;;14.68;7.00;;;;;;;22.24;72.83;101083.56;1713178;83;22123;-72
2022/10/31 10:41:23;;;;;;;19.17;7.17;;;;;;;22.44;72.19;101076.70;1713351;83;21081;-73
2022/10/31 10:43:53;;;;;;;11.48;7.05;;;;;;;22.65;71.71;101080.41;1713091;83;21056;-72
2022/10/31 10:49:51;;;;;;;12.35;6.60;;;;;;;23.05;70.59;101075.14;1713483;83;21079;-72
2022/10/31 10:52:34;;;;;;;14.13;6.30;;;;;;;23.16;69.82;101069.79;1713727;83;22061;-73
2022/10/31 10:55:24;;;;;;;12.40;6.00;;;;;;;23.34;69.30;101072.84;1717825;83;21089;-73
2022/10/31 10:57:56;;;;;;;12.88;6.20;;;;;;;23.48;68.58;101078.41;1718258;83;21080;-72
2022/10/31 11:00:31;;;;;;;15.93;6.37;;;;;;;23.57;67.80;101079.84;1718038;83;21014;-73
2022/10/31 11:02:59;;;;;;;14.40;5.90;;;;;;;23.62;66.91;101077.30;1718212;83;21045;-73
2022/10/31 11:05:37;;;;;;;12.28;6.62;;;;;;;23.77;66.43;101074.23;1718234;83;21139;-74
2022/10/31 11:08:06;;;;;;;14.07;6.28;;;;;;;24.19;66.36;101068.99;1718396;83;21095;-73
2022/10/31 11:10:34;;;;;;;12.85;6.53;;;;;;;24.43;65.29;101065.20;1718567;83;21495;-73
2022/10/31 11:13:21;;;;;;;14.68;6.40;;;;;;;24.65;64.88;101069.12;1722288;80;21060;-73
2022/10/31 11:16:05;;;;;;;15.15;5.92;;;;;;;24.95;64.58;101063.94;1779978;80;21509;-72
2022/10/31 11:18:40;;;;;;;9.33;5.60;;;;;;;25.23;64.08;101065.07;1780114;80;21044;-73
2022/10/31 11:21:22;;;;;;;14.75;6.00;;;;;;;25.43;63.30;101064.14;1780013;80;21505;-73
2022/10/31 11:23:49;;;;;;;12.07;5.97;;;;;;;25.57;62.79;101060.21;1772899;80;21028;-73
2022/10/31 11:26:21;;;;;;;9.23;5.55;;;;;;;25.64;62.02;101061.88;1780048;80;21059;-72
2022/10/31 11:28:59;;;;;;;13.75;6.17;;;;;;;25.76;61.78;101059.41;1780173;80;21036;-73
2022/10/31 11:31:27;;;;;;;12.25;6.10;;;;;;;25.77;61.15;101057.94;1779925;80;21134;-73
2022/10/31 11:34:03;;;;;;;16.73;6.92;;;;;;;25.90;61.20;101052.80;1779960;80;21043;-73
2022/10/31 11:36:37;;;;;;;12.13;5.72;;;;;;;26.02;61.11;101048.98;1780127;80;21018;-73
2022/10/31 11:39:08;;;;;;;10.38;6.20;;;;;;;25.98;60.78;101052.95;1780035;80;21075;-73
2022/10/31 11:41:38;;;;;;;12.43;6.40;;;;;;;25.80;60.22;101048.72;1780234;80;21020;-73
2022/10/31 11:44:26;;;;;;;12.78;6.17;;;;;;;25.65;59.76;101049.63;1780186;80;21062;-72
2022/10/31 11:46:58;;;;;;;11.22;6.00;;;;;;;25.52;59.85;101052.59;1779471;80;21004;-72
2022/10/31 11:49:44;;;;;;;13.13;6.25;;;;;;;25.49;59.46;101053.34;1780035;80;21478;-72
2022/10/31 11:52:26;;;;;;;10.30;6.15;;;;;;;25.35;59.28;101046.53;1779866;80;20973;-73
2022/10/31 11:54:57;;;;;;;11.40;5.90;;;;;;;25.21;59.04;101051.77;1782524;80;21063;-73